Nearby METAR Reports

 

KLBE - Latrobe/Westmorl, Pennsylvania, USA
Distance from station: SE 16mi, 26km
Updated: Sat, 30-Apr-2016 1:50pm EDT
Mostly cloudy
Mostly cloudy
 Wind from ESE
Wind: ESE 7 mph , 11 km/h
Temperature: 64°F , 18°C
Dew Point: 48°F , 9°C
Humidity: 56%
Barometer: 30.08 inHg , 1018.6 hPa
Clouds: Mostly cloudy
Visibility: 15 miles , 24 km
Cloud details: Mostly cloudy 4500 ft
Mostly cloudy 10000 ft
2016/04/30 17:50 KLBE 301750Z 11006KT 15SM BKN045 BKN100 18/09 A3008
KAGC - Pittsburgh/Alleg, Pennsylvania, USA
Distance from station: WSW 18mi, 30km
Updated: Sat, 30-Apr-2016 1:53pm EDT
Clear
Clear
 Wind from calm
Wind: Calm
Temperature: 64°F , 18°C
Dew Point: 46°F , 8°C
Humidity: 52%
Barometer: 30.05 inHg , 1017.6 hPa
Clouds: Clear
Visibility: 10 miles , 16 km
2016/04/30 17:53 KAGC 301753Z 00000KT 10SM CLR 18/08 A3005 RMK AO2 SLP181 T01830078 10189 20089 56014
 
KBTP - Butler Co., Pennsylvania, USA
Distance from station: NW 29mi, 47km
Updated: Sat, 30-Apr-2016 2:35pm EDT
Few Clouds
Few Clouds
 Wind from E
Wind: E 6 mph , 9 km/h
Temperature: 63°F , 17°C
Dew Point: 46°F , 8°C
Humidity: 56%
Barometer: 30.11 inHg , 1019.6 hPa
Clouds: Few Clouds
Visibility: 10 miles , 16 km
Cloud details: Few Clouds 3500 ft
2016/04/30 18:35 KBTP 301835Z AUTO 09005KT 10SM FEW035 17/08 A3011 RMK AO1
KIDI - Indiana/Stewart, Pennsylvania, USA
Distance from station: ENE 29mi, 47km
Updated: Sat, 30-Apr-2016 2:35pm EDT
Mostly cloudy
Mostly cloudy
 Wind from SSE
Wind: SSE 10 mph , 17 km/h, Gust: 16 mph , 26 km/h
Temperature: 61°F , 16°C
Dew Point: 48°F , 9°C
Humidity: 63%
Barometer: 30.13 inHg , 1020.3 hPa
Clouds: Mostly cloudy
Visibility: 10 miles , 16 km
Cloud details: Mostly cloudy 3600 ft
Mostly cloudy 4200 ft
2016/04/30 18:35 KIDI 301835Z AUTO 15009G14KT 10SM BKN036 BKN042 16/09 A3013 RMK A01
 
KPIT - Pittsburgh, Pennsylvania, USA
Distance from station: W 36mi, 57km
Updated: Sat, 30-Apr-2016 1:51pm EDT
Overcast
Overcast
 Wind from varies
Wind: varies 5 mph , 7 km/h
Temperature: 64°F , 18°C
Dew Point: 45°F , 7°C
Humidity: 49%
Barometer: 30.06 inHg , 1017.9 hPa
Clouds: Overcast
Visibility: 10 miles , 16 km
Cloud details: Few Clouds 3000 ft
Partly cloudy 17000 ft
Overcast 25000 ft
2016/04/30 17:51 KPIT 301751Z VRB04KT 10SM FEW030 SCT170 OVC250 18/07 A3006 RMK AO2 SLP187 T01830072 10183 20083 58012
KJST - Johnstown, Pennsylvania, USA
Distance from station: ESE 41mi, 66km
Updated: Sat, 30-Apr-2016 2:12pm EDT
Overcast
Overcast
 Wind from ESE
Wind: ESE 9 mph , 15 km/h
Temperature: 48°F , 9°C
Wind Chill: 44°F , 7°C
Dew Point: 43°F , 6°C
Humidity: 82%
Barometer: 30.12 inHg , 1020 hPa
Clouds: Overcast
Visibility: 7 miles , 11 km
Cloud details: Mostly cloudy 900 ft
Overcast 1500 ft
2016/04/30 18:12 KJST 301812Z AUTO 12008KT 7SM BKN009 OVC015 09/06 A3012 RMK AO2 CIG 007V011 T00940056
 
KAFJ - Washington, Pennsylvania, USA
Distance from station: WSW 42mi, 68km
Updated: Sat, 30-Apr-2016 2:35pm EDT
Overcast
Overcast
 Wind from calm
Wind: Calm
Temperature: 64°F , 18°C
Dew Point: 48°F , 9°C
Humidity: 56%
Barometer: 30.08 inHg , 1018.6 hPa
Clouds: Overcast
Visibility: 10 miles , 16 km
Cloud details: Overcast 9000 ft
2016/04/30 18:35 KAFJ 301835Z AUTO 00000KT 10SM OVC090 18/09 A3008 RMK AO1
KBVI - Beaver Falls Arp, Pennsylvania, USA
Distance from station: WNW 48mi, 77km
Updated: Sat, 30-Apr-2016 12:47pm EDT
NOT Current
Mostly cloudy
Mostly cloudy
 Wind from E
Wind: E 3 mph , 6 km/h
Temperature: 61°F , 16°C
Dew Point: 48°F , 9°C
Humidity: 63%
Barometer: 30.09 inHg , 1019 hPa
Clouds: Mostly cloudy
Visibility: 10 miles , 16 km
Cloud details: Mostly cloudy 3000 ft
2016/04/30 16:47 KBVI 301647Z 10003KT 10SM BKN030 16/09 A3009